ADDS METAR Data INFO
IDs: Format: Raw Decoded Include TAF

Data at: 2048 UTC 24 Jun 2018

PAKH 242005Z AUTO 25015G20KT 10SM BKN020 OVC065 12/07 A3006 RMK AO2 $
PAKH 241956Z AUTO 30011G16KT 10SM SCT018 OVC065 12/08 A3006 RMK AO2 SLP181 T01170078 $
PAKH 241856Z AUTO 25011KT 10SM BKN016 BKN021 OVC065 11/08 A3006 RMK AO2 SLP180 T01110078 $
PAKH 241656Z AUTO 31008KT 10SM OVC065 11/08 A3006 RMK AO2 SLP181 T01110078 $
PAKH 241556Z AUTO 00000KT 10SM FEW013 BKN042 BKN065 09/08 A3007 RMK AO2 RAE11 SLP184 P0000 T00890078 $
PAKH 241542Z AUTO 01004KT 10SM SCT007 BKN042 09/08 A3007 RMK AO2 RAE11 P0000 $
PAKH 241456Z AUTO 27007KT 10SM -RA OVC009 09/08 A3008 RMK AO2 CIG 007V011 SLP187 P0001 60001 T00890083 58006 $
PAKH 241356Z AUTO 23003KT 9SM -RA OVC009 09/07 A3009 RMK AO2 RAB45 CIG 008V012 SLP189 P0000 T00890072 $
PAKH 241331Z AUTO 26005KT 10SM OVC013 09/07 A3009 RMK AO2 $
PAKH 241256Z AUTO 26005KT 10SM BKN017 OVC041 09/06 A3009 RMK AO2 SLP192 T00890061 $
PAKH 241156Z AUTO 28007KT 10SM OVC048 09/06 A3010 RMK AO2 RAE11 SLP193 P0000 60000 T00940061 10100 20089 58004 $
PAKH 241126Z AUTO 00000KT 10SM FEW014 BKN055 OVC070 09/06 A3010 RMK AO2 RAE11 P0000 $
PAKH 241056Z AUTO 26004KT 10SM -RA BKN016 OVC050 09/07 A3011 RMK AO2 RAB45 SLP197 P0000 T00940067 $
PAKH 241052Z AUTO 00000KT 10SM -RA BKN016 BKN050 OVC065 09/07 A3011 RMK AO2 RAB45 P0000 $
PAKH 240956Z AUTO 28005KT 10SM BKN050 OVC065 09/07 A3011 RMK AO2 SLP197 T00890067 $
PAKH 240856Z AUTO 35003KT 10SM OVC042 09/06 A3011 RMK AO2 SLP197 T00940061 401170061 55002 $
PAKH 240756Z AUTO 29013KT 10SM OVC038 09/06 A3010 RMK AO2 SLP195 T00940061 $
PAKH 240656Z AUTO 28011KT 10SM OVC036 09/07 A3011 RMK AO2 SLP199 T00940067 $
PAKH 240556Z AUTO 27009KT 10SM FEW029 BKN036 OVC060 10/06 A3011 RMK AO2 SLP199 60000 T01000061 10106 20089 55001 $
PAKH 240549Z AUTO 28011KT 10SM SCT029 BKN036 OVC060 10/06 A3012 RMK AO2 $
PAKH 240536Z AUTO 28007KT 10SM FEW022 BKN029 OVC039 10/07 A3011 RMK AO2 $
PAKH 240519Z AUTO 29007KT 10SM SCT022 BKN034 OVC041 10/07 A3012 RMK AO2 $
PAKH 240456Z AUTO 31007KT 10SM BKN021 BKN025 OVC042 10/06 A3011 RMK AO2 SLP198 T01000061 $
PAKH 240356Z AUTO 26012KT 10SM BKN021 OVC027 11/06 A3012 RMK AO2 SLP200 T01060061 $
PAKH 240326Z AUTO 26011KT 10SM BKN021 BKN030 OVC042 11/07 A3012 RMK AO2 $
PAKH 240256Z AUTO 25010KT 10SM FEW019 OVC042 11/07 A3012 RMK AO2 SLP199 60000 T01060067 58005 $
PAKH 240242Z AUTO 25012KT 10SM FEW020 SCT025 OVC040 11/07 A3012 RMK AO2 $
PAKH 240156Z AUTO 25009KT 10SM FEW019 BKN026 OVC031 11/07 A3012 RMK AO2 SLP202 T01060067 $
PAKH 240146Z AUTO 25009KT 10SM FEW019 SCT026 OVC031 11/07 A3012 RMK AO2 $
PAKH 240056Z AUTO 24008KT 10SM OVC029 10/06 A3013 RMK AO2 RAB07E19 SLP203 P0000 T01000061 $
PAKH 232356Z AUTO 27010KT 10SM OVC029 09/06 A3013 RMK AO2 RAE03 SLP204 P0000 60000 T00940056 10117 20089 51003 $
PAKH 232327Z AUTO 26010KT 10SM OVC029 09/07 A3013 RMK AO2 RAE03 P0000 $
PAKH 232256Z AUTO 26009KT 9SM -RA OVC033 09/07 A3013 RMK AO2 RAB18 SLP204 P0000 T00940072 $
PAKH 232156Z AUTO 26009KT 10SM OVC033 09/07 A3013 RMK AO2 SLP204 T00890067 $
PAKH 232056Z AUTO 24009KT 10SM FEW024 BKN037 OVC050 12/08 A3012 RMK AO2 SLP201 T01170078 56002 $
PAKH 232012Z AUTO 21006KT 10SM SCT020 BKN026 OVC048 11/07 A3012 RMK AO2 $
PAKH 231956Z AUTO VRB06KT 10SM FEW024 BKN048 OVC060 11/07 A3012 RMK AO2 SLP202 T01110067 $
PAKH 231856Z AUTO 15003KT 10SM OVC055 10/06 A3012 RMK AO2 SLP202 T01000056 $
PAKH 231756Z AUTO 17003KT 10SM FEW031 OVC055 09/06 A3013 RMK AO2 SLP203 T00940061 10094 20061 58000 $
PAKH 231656Z AUTO 16004KT 10SM FEW033 OVC055 09/06 A3013 RMK AO2 SLP204 T00890061 $
PAKH 231646Z AUTO 00000KT 10SM SCT013 BKN035 OVC060 09/06 A3013 RMK AO2 $
PAKH 231556Z AUTO 13003KT 10SM BKN011 OVC055 08/07 A3013 RMK AO2 SLP205 T00830067 $
PAKH 231549Z AUTO 05003KT 10SM SCT009 OVC055 08/07 A3013 RMK AO2 $
PAKH 231456Z AUTO 36005KT 10SM OVC033 07/06 A3013 RMK AO2 SLP203 T00720061 55002 $
PAKH 231356Z AUTO 03003KT 10SM FEW031 OVC055 07/06 A3012 RMK AO2 SLP202 T00670056 $
PAKH 231321Z AUTO 00000KT 10SM SCT028 OVC055 07/05 A3013 RMK AO2 $
PAKH 231256Z AUTO 00000KT 10SM BKN026 BKN039 OVC055 07/05 A3013 RMK AO2 SLP204 T00670050 $
PAKH 231156Z AUTO 00000KT 10SM BKN033 OVC055 06/05 A3013 RMK AO2 SLP205 T00610050 10089 20061 56002 $
PAKH 231056Z AUTO 00000KT 10SM OVC055 08/06 A3014 RMK AO2 SLP206 T00780061 $
PAKH 231020Z AUTO 00000KT 10SM FEW013 OVC050 08/06 A3014 RMK AO2 $
PAKH 231008Z AUTO 00000KT 10SM SCT013 BKN025 OVC055 08/06 A3014 RMK AO2 $
PAKH 230956Z AUTO 04004KT 10SM BKN013 OVC055 08/06 A3014 RMK AO2 SLP206 T00780061 $
PAKH 230946Z AUTO 00000KT 10SM BKN013 BKN037 OVC055 08/06 A3014 RMK AO2 $
PAKH 230856Z AUTO 00000KT 10SM OVC055 07/06 A3014 RMK AO2 SLP207 T00720061 401170072 53000 $